sensor_id;sensor_type;location;lat;lon;timestamp;pressure;altitude;pressure_sealevel;temperature;humidity
40089;BME280;25793;55.706;13.186;2022-07-23T00:00:16;100872.22;;;15.45;77.05
40089;BME280;25793;55.706;13.186;2022-07-23T00:02:43;100871.94;;;15.37;77.94
40089;BME280;25793;55.706;13.186;2022-07-23T00:05:10;100868.78;;;15.78;76.84
40089;BME280;25793;55.706;13.186;2022-07-23T00:07:38;100871.19;;;15.70;76.94
40089;BME280;25793;55.706;13.186;2022-07-23T00:10:05;100855.78;;;15.65;77.14
40089;BME280;25793;55.706;13.186;2022-07-23T00:12:32;100855.41;;;15.47;78.24
40089;BME280;25793;55.706;13.186;2022-07-23T00:14:58;100851.91;;;15.24;79.51
40089;BME280;25793;55.706;13.186;2022-07-23T00:17:25;100842.91;;;15.04;80.15
40089;BME280;25793;55.706;13.186;2022-07-23T00:19:52;100844.56;;;15.63;78.33
40089;BME280;25793;55.706;13.186;2022-07-23T00:22:20;100835.53;;;15.79;77.70
40089;BME280;25793;55.706;13.186;2022-07-23T00:24:46;100838.28;;;16.00;76.90
40089;BME280;25793;55.706;13.186;2022-07-23T00:27:33;100839.81;;;16.14;76.59
40089;BME280;25793;55.706;13.186;2022-07-23T00:30:00;100839.94;;;15.78;77.91
40089;BME280;25793;55.706;13.186;2022-07-23T00:32:27;100837.78;;;15.49;79.97
40089;BME280;25793;55.706;13.186;2022-07-23T00:35:13;100846.94;;;15.44;80.58
40089;BME280;25793;55.706;13.186;2022-07-23T00:37:40;100837.84;;;15.25;80.94
40089;BME280;25793;55.706;13.186;2022-07-23T00:40:08;100833.00;;;15.43;80.85
40089;BME280;25793;55.706;13.186;2022-07-23T00:42:35;100826.56;;;15.47;80.42
40089;BME280;25793;55.706;13.186;2022-07-23T00:45:02;100832.44;;;15.51;80.73
40089;BME280;25793;55.706;13.186;2022-07-23T00:47:29;100834.69;;;15.67;79.54
40089;BME280;25793;55.706;13.186;2022-07-23T00:49:56;100840.31;;;15.85;78.87
40089;BME280;25793;55.706;13.186;2022-07-23T00:52:23;100839.31;;;15.63;79.75
40089;BME280;25793;55.706;13.186;2022-07-23T00:54:50;100835.41;;;14.99;82.06
40089;BME280;25793;55.706;13.186;2022-07-23T00:57:18;100841.06;;;15.17;82.35
40089;BME280;25793;55.706;13.186;2022-07-23T00:59:44;100848.72;;;14.96;82.96
40089;BME280;25793;55.706;13.186;2022-07-23T01:02:11;100851.94;;;15.58;80.80
40089;BME280;25793;55.706;13.186;2022-07-23T01:04:38;100854.66;;;15.34;80.88
40089;BME280;25793;55.706;13.186;2022-07-23T01:07:05;100846.59;;;15.48;80.47
40089;BME280;25793;55.706;13.186;2022-07-23T01:09:31;100850.03;;;15.60;80.06
40089;BME280;25793;55.706;13.186;2022-07-23T01:11:59;100835.06;;;15.85;78.86
40089;BME280;25793;55.706;13.186;2022-07-23T01:14:26;100851.91;;;15.24;80.95
40089;BME280;25793;55.706;13.186;2022-07-23T01:16:53;100843.94;;;15.26;81.24
40089;BME280;25793;55.706;13.186;2022-07-23T01:19:20;100843.00;;;15.27;81.28
40089;BME280;25793;55.706;13.186;2022-07-23T01:21:49;100841.78;;;15.19;81.98
40089;BME280;25793;55.706;13.186;2022-07-23T01:24:17;100838.84;;;15.47;81.17
40089;BME280;25793;55.706;13.186;2022-07-23T01:26:54;100842.28;;;15.47;81.05
40089;BME280;25793;55.706;13.186;2022-07-23T01:29:21;100841.47;;;15.58;80.72
40089;BME280;25793;55.706;13.186;2022-07-23T01:31:49;100823.84;;;15.60;80.88
40089;BME280;25793;55.706;13.186;2022-07-23T01:34:16;100820.03;;;15.42;81.13
40089;BME280;25793;55.706;13.186;2022-07-23T01:36:42;100825.34;;;15.40;81.28
40089;BME280;25793;55.706;13.186;2022-07-23T01:39:10;100825.03;;;15.56;80.73
40089;BME280;25793;55.706;13.186;2022-07-23T01:41:37;100817.66;;;15.84;80.06
40089;BME280;25793;55.706;13.186;2022-07-23T01:44:05;100813.38;;;15.83;79.66
40089;BME280;25793;55.706;13.186;2022-07-23T01:46:32;100825.66;;;16.05;78.86
40089;BME280;25793;55.706;13.186;2022-07-23T01:49:00;100822.31;;;15.92;79.22
40089;BME280;25793;55.706;13.186;2022-07-23T01:51:50;100822.41;;;15.79;79.83
40089;BME280;25793;55.706;13.186;2022-07-23T01:54:41;100828.81;;;15.52;80.41
40089;BME280;25793;55.706;13.186;2022-07-23T01:57:09;100814.75;;;15.53;80.52
40089;BME280;25793;55.706;13.186;2022-07-23T01:59:37;100820.63;;;15.79;79.85
40089;BME280;25793;55.706;13.186;2022-07-23T02:02:06;100815.13;;;15.71;79.82
40089;BME280;25793;55.706;13.186;2022-07-23T02:04:33;100810.63;;;15.62;80.20
40089;BME280;25793;55.706;13.186;2022-07-23T02:07:04;100810.25;;;15.67;80.67
40089;BME280;25793;55.706;13.186;2022-07-23T02:09:31;100808.84;;;15.51;80.92
40089;BME280;25793;55.706;13.186;2022-07-23T02:11:58;100812.03;;;15.77;80.70
40089;BME280;25793;55.706;13.186;2022-07-23T02:14:25;100819.31;;;15.74;80.77
40089;BME280;25793;55.706;13.186;2022-07-23T02:16:53;100819.31;;;15.97;80.38
40089;BME280;25793;55.706;13.186;2022-07-23T02:19:19;100813.13;;;15.98;80.48
40089;BME280;25793;55.706;13.186;2022-07-23T02:21:46;100828.13;;;15.61;81.35
40089;BME280;25793;55.706;13.186;2022-07-23T02:24:13;100821.41;;;15.23;83.22
40089;BME280;25793;55.706;13.186;2022-07-23T02:26:41;100814.19;;;15.49;82.46
40089;BME280;25793;55.706;13.186;2022-07-23T02:29:08;100820.75;;;15.67;82.43
40089;BME280;25793;55.706;13.186;2022-07-23T02:31:35;100819.09;;;15.07;84.35
40089;BME280;25793;55.706;13.186;2022-07-23T02:34:02;100826.31;;;15.39;83.83
40089;BME280;25793;55.706;13.186;2022-07-23T02:36:29;100817.16;;;15.33;84.07
40089;BME280;25793;55.706;13.186;2022-07-23T02:38:56;100821.78;;;15.30;84.50
40089;BME280;25793;55.706;13.186;2022-07-23T02:41:25;100810.63;;;15.62;83.94
40089;BME280;25793;55.706;13.186;2022-07-23T02:43:52;100813.59;;;15.69;83.54
40089;BME280;25793;55.706;13.186;2022-07-23T02:46:20;100809.19;;;15.69;83.30
40089;BME280;25793;55.706;13.186;2022-07-23T02:48:48;100818.81;;;15.57;83.46
40089;BME280;25793;55.706;13.186;2022-07-23T02:51:15;100808.59;;;15.43;84.43
40089;BME280;25793;55.706;13.186;2022-07-23T02:53:49;100812.50;;;15.48;84.10
40089;BME280;25793;55.706;13.186;2022-07-23T02:56:16;100802.28;;;15.57;84.15
40089;BME280;25793;55.706;13.186;2022-07-23T02:58:42;100802.16;;;15.70;83.73
40089;BME280;25793;55.706;13.186;2022-07-23T03:01:09;100803.81;;;15.82;83.67
40089;BME280;25793;55.706;13.186;2022-07-23T03:03:36;100802.75;;;15.85;83.76
40089;BME280;25793;55.706;13.186;2022-07-23T03:06:04;100797.03;;;16.02;83.17
40089;BME280;25793;55.706;13.186;2022-07-23T03:08:31;100793.56;;;16.02;82.71
40089;BME280;25793;55.706;13.186;2022-07-23T03:10:57;100795.72;;;15.85;82.70
40089;BME280;25793;55.706;13.186;2022-07-23T03:13:24;100797.50;;;15.73;83.45
40089;BME280;25793;55.706;13.186;2022-07-23T03:15:52;100801.19;;;15.71;83.49
40089;BME280;25793;55.706;13.186;2022-07-23T03:18:19;100796.78;;;15.60;83.70
40089;BME280;25793;55.706;13.186;2022-07-23T03:20:45;100796.91;;;15.58;84.11
40089;BME280;25793;55.706;13.186;2022-07-23T03:23:12;100796.06;;;15.46;84.70
40089;BME280;25793;55.706;13.186;2022-07-23T03:25:39;100798.44;;;15.27;85.26
40089;BME280;25793;55.706;13.186;2022-07-23T03:28:06;100791.31;;;15.29;85.56
40089;BME280;25793;55.706;13.186;2022-07-23T03:30:33;100786.50;;;15.11;86.44
40089;BME280;25793;55.706;13.186;2022-07-23T03:33:00;100785.13;;;15.30;86.11
40089;BME280;25793;55.706;13.186;2022-07-23T03:35:27;100791.19;;;15.53;85.45
40089;BME280;25793;55.706;13.186;2022-07-23T03:38:29;100793.56;;;15.33;85.71
40089;BME280;25793;55.706;13.186;2022-07-23T03:40:56;100801.44;;;15.45;85.69
40089;BME280;25793;55.706;13.186;2022-07-23T03:43:22;100802.41;;;15.44;85.56
40089;BME280;25793;55.706;13.186;2022-07-23T03:45:52;100799.53;;;15.58;85.05
40089;BME280;25793;55.706;13.186;2022-07-23T03:48:18;100799.06;;;15.64;84.89
40089;BME280;25793;55.706;13.186;2022-07-23T03:50:45;100788.81;;;15.39;85.35
40089;BME280;25793;55.706;13.186;2022-07-23T03:53:12;100794.75;;;15.29;85.73
40089;BME280;25793;55.706;13.186;2022-07-23T03:55:38;100786.44;;;15.47;85.75
40089;BME280;25793;55.706;13.186;2022-07-23T03:58:05;100781.22;;;14.88;87.27
40089;BME280;25793;55.706;13.186;2022-07-23T04:00:32;100778.50;;;15.01;87.61
40089;BME280;25793;55.706;13.186;2022-07-23T04:02:59;100784.84;;;15.33;86.64
40089;BME280;25793;55.706;13.186;2022-07-23T04:05:27;100792.06;;;14.95;87.52
40089;BME280;25793;55.706;13.186;2022-07-23T04:08:03;100788.66;;;14.57;88.93
40089;BME280;25793;55.706;13.186;2022-07-23T04:10:30;100785.38;;;14.67;89.50
40089;BME280;25793;55.706;13.186;2022-07-23T04:12:57;100785.72;;;14.62;89.85
40089;BME280;25793;55.706;13.186;2022-07-23T04:15:24;100783.19;;;14.49;90.80
40089;BME280;25793;55.706;13.186;2022-07-23T04:17:51;100780.22;;;14.78;89.72
40089;BME280;25793;55.706;13.186;2022-07-23T04:20:18;100778.78;;;14.74;89.81
40089;BME280;25793;55.706;13.186;2022-07-23T04:22:53;100774.63;;;14.71;89.84
40089;BME280;25793;55.706;13.186;2022-07-23T04:25:21;100772.28;;;14.67;90.27
40089;BME280;25793;55.706;13.186;2022-07-23T04:27:48;100773.03;;;15.04;89.10
40089;BME280;25793;55.706;13.186;2022-07-23T04:30:16;100768.28;;;15.21;87.79
40089;BME280;25793;55.706;13.186;2022-07-23T04:32:43;100766.38;;;15.12;87.93
40089;BME280;25793;55.706;13.186;2022-07-23T04:35:18;100766.16;;;15.26;87.46
40089;BME280;25793;55.706;13.186;2022-07-23T04:37:45;100763.91;;;15.44;86.80
40089;BME280;25793;55.706;13.186;2022-07-23T04:40:12;100769.16;;;15.56;85.97
40089;BME280;25793;55.706;13.186;2022-07-23T04:42:39;100758.06;;;15.52;85.69
40089;BME280;25793;55.706;13.186;2022-07-23T04:45:06;100766.03;;;15.39;86.32
40089;BME280;25793;55.706;13.186;2022-07-23T04:47:39;100768.06;;;15.35;86.22
40089;BME280;25793;55.706;13.186;2022-07-23T04:50:05;100761.66;;;15.40;86.35
40089;BME280;25793;55.706;13.186;2022-07-23T04:52:32;100771.31;;;15.62;86.21
40089;BME280;25793;55.706;13.186;2022-07-23T04:54:59;100773.31;;;15.58;85.47
40089;BME280;25793;55.706;13.186;2022-07-23T04:57:27;100783.78;;;15.24;86.33
40089;BME280;25793;55.706;13.186;2022-07-23T04:59:53;100776.13;;;14.98;87.53
40089;BME280;25793;55.706;13.186;2022-07-23T05:02:20;100772.28;;;14.91;88.13
40089;BME280;25793;55.706;13.186;2022-07-23T05:04:47;100775.25;;;14.86;88.77
40089;BME280;25793;55.706;13.186;2022-07-23T05:07:14;100776.84;;;15.00;88.56
40089;BME280;25793;55.706;13.186;2022-07-23T05:09:41;100770.09;;;15.20;88.21
40089;BME280;25793;55.706;13.186;2022-07-23T05:12:07;100762.84;;;15.47;87.48
40089;BME280;25793;55.706;13.186;2022-07-23T05:14:34;100762.72;;;15.60;86.72
40089;BME280;25793;55.706;13.186;2022-07-23T05:17:01;100757.44;;;15.71;86.32
40089;BME280;25793;55.706;13.186;2022-07-23T05:19:28;100749.72;;;15.58;85.78
40089;BME280;25793;55.706;13.186;2022-07-23T05:21:55;100747.84;;;15.49;86.29
40089;BME280;25793;55.706;13.186;2022-07-23T05:24:22;100749.72;;;15.70;85.80
40089;BME280;25793;55.706;13.186;2022-07-23T05:26:50;100748.91;;;15.69;85.23
40089;BME280;25793;55.706;13.186;2022-07-23T05:29:17;100742.13;;;15.44;86.05
40089;BME280;25793;55.706;13.186;2022-07-23T05:31:45;100739.59;;;15.42;86.80
40089;BME280;25793;55.706;13.186;2022-07-23T05:34:12;100750.81;;;15.56;86.37
40089;BME280;25793;55.706;13.186;2022-07-23T05:36:44;100757.00;;;15.32;87.21
40089;BME280;25793;55.706;13.186;2022-07-23T05:39:11;100753.63;;;15.07;88.34
40089;BME280;25793;55.706;13.186;2022-07-23T05:41:37;100748.53;;;15.40;87.68
40089;BME280;25793;55.706;13.186;2022-07-23T05:44:04;100743.53;;;15.37;87.41
40089;BME280;25793;55.706;13.186;2022-07-23T05:46:32;100737.69;;;15.33;87.37
40089;BME280;25793;55.706;13.186;2022-07-23T05:49:04;100751.41;;;15.48;87.55
40089;BME280;25793;55.706;13.186;2022-07-23T05:51:50;100748.78;;;15.48;87.37
40089;BME280;25793;55.706;13.186;2022-07-23T05:54:26;100749.38;;;15.63;86.61
40089;BME280;25793;55.706;13.186;2022-07-23T05:56:53;100748.06;;;15.46;87.57
40089;BME280;25793;55.706;13.186;2022-07-23T05:59:20;100745.31;;;15.59;87.07
40089;BME280;25793;55.706;13.186;2022-07-23T06:01:47;100746.50;;;15.43;87.19
40089;BME280;25793;55.706;13.186;2022-07-23T06:04:15;100741.38;;;15.53;86.92
40089;BME280;25793;55.706;13.186;2022-07-23T06:06:51;100750.91;;;15.20;88.16
40089;BME280;25793;55.706;13.186;2022-07-23T06:09:18;100751.16;;;15.28;87.87
40089;BME280;25793;55.706;13.186;2022-07-23T06:11:45;100760.09;;;15.26;87.96
40089;BME280;25793;55.706;13.186;2022-07-23T06:14:11;100755.78;;;15.13;88.65
40089;BME280;25793;55.706;13.186;2022-07-23T06:16:48;100747.34;;;15.32;88.39
40089;BME280;25793;55.706;13.186;2022-07-23T06:19:15;100753.19;;;15.47;88.00
40089;BME280;25793;55.706;13.186;2022-07-23T06:21:42;100757.69;;;15.11;88.43
40089;BME280;25793;55.706;13.186;2022-07-23T06:24:13;100751.28;;;15.61;87.20
40089;BME280;25793;55.706;13.186;2022-07-23T06:26:40;100760.44;;;15.67;86.64
40089;BME280;25793;55.706;13.186;2022-07-23T06:29:07;100758.31;;;15.38;87.43
40089;BME280;25793;55.706;13.186;2022-07-23T06:31:34;100760.75;;;15.05;89.15
40089;BME280;25793;55.706;13.186;2022-07-23T06:34:01;100757.69;;;15.11;89.12
40089;BME280;25793;55.706;13.186;2022-07-23T06:36:27;100750.31;;;15.50;88.19
40089;BME280;25793;55.706;13.186;2022-07-23T06:38:54;100758.91;;;15.53;87.41
40089;BME280;25793;55.706;13.186;2022-07-23T06:41:21;100763.44;;;15.28;88.43
40089;BME280;25793;55.706;13.186;2022-07-23T06:43:49;100773.44;;;15.23;88.10
40089;BME280;25793;55.706;13.186;2022-07-23T06:46:16;100775.81;;;15.48;87.97
40089;BME280;25793;55.706;13.186;2022-07-23T06:48:43;100770.34;;;15.63;86.98
40089;BME280;25793;55.706;13.186;2022-07-23T06:51:10;100765.81;;;15.65;86.58
40089;BME280;25793;55.706;13.186;2022-07-23T06:53:37;100759.97;;;15.61;86.56
40089;BME280;25793;55.706;13.186;2022-07-23T06:56:03;100761.59;;;15.17;88.14
40089;BME280;25793;55.706;13.186;2022-07-23T06:58:32;100753.88;;;15.15;88.35
40089;BME280;25793;55.706;13.186;2022-07-23T07:00:59;100752.00;;;15.29;88.42
40089;BME280;25793;55.706;13.186;2022-07-23T07:03:26;100746.28;;;15.24;88.39
40089;BME280;25793;55.706;13.186;2022-07-23T07:05:52;100746.28;;;15.58;87.65
40089;BME280;25793;55.706;13.186;2022-07-23T07:08:19;100757.47;;;15.60;87.37
40089;BME280;25793;55.706;13.186;2022-07-23T07:10:46;100757.59;;;15.70;86.74
40089;BME280;25793;55.706;13.186;2022-07-23T07:13:13;100758.41;;;15.93;86.58
40089;BME280;25793;55.706;13.186;2022-07-23T07:15:40;100753.41;;;15.90;86.65
40089;BME280;25793;55.706;13.186;2022-07-23T07:18:07;100750.78;;;15.90;85.93
40089;BME280;25793;55.706;13.186;2022-07-23T07:20:34;100755.44;;;15.75;86.33
40089;BME280;25793;55.706;13.186;2022-07-23T07:23:00;100759.47;;;15.56;87.47
40089;BME280;25793;55.706;13.186;2022-07-23T07:25:27;100757.94;;;15.19;88.68
40089;BME280;25793;55.706;13.186;2022-07-23T07:27:54;100762.09;;;15.68;87.82
40089;BME280;25793;55.706;13.186;2022-07-23T07:30:21;100768.28;;;15.21;88.03
40089;BME280;25793;55.706;13.186;2022-07-23T07:32:47;100772.25;;;15.49;88.32
40089;BME280;25793;55.706;13.186;2022-07-23T07:35:24;100766.78;;;15.30;88.26
40089;BME280;25793;55.706;13.186;2022-07-23T07:37:51;100773.09;;;15.39;88.73
40089;BME280;25793;55.706;13.186;2022-07-23T07:40:18;100771.78;;;15.56;88.46
40089;BME280;25793;55.706;13.186;2022-07-23T07:42:50;100770.16;;;14.96;89.87
40089;BME280;25793;55.706;13.186;2022-07-23T07:45:19;100771.78;;;14.74;91.36
40089;BME280;25793;55.706;13.186;2022-07-23T07:47:47;100770.19;;;15.08;91.12
40089;BME280;25793;55.706;13.186;2022-07-23T07:50:14;100771.38;;;15.03;91.39
40089;BME280;25793;55.706;13.186;2022-07-23T07:52:41;100783.88;;;15.11;91.38
40089;BME280;25793;55.706;13.186;2022-07-23T07:55:09;100786.59;;;14.98;90.81
40089;BME280;25793;55.706;13.186;2022-07-23T07:57:37;100765.84;;;14.84;92.09
40089;BME280;25793;55.706;13.186;2022-07-23T08:00:06;100761.25;;;15.10;91.66
40089;BME280;25793;55.706;13.186;2022-07-23T08:02:55;100761.72;;;14.93;92.20
40089;BME280;25793;55.706;13.186;2022-07-23T08:05:28;100763.06;;;14.50;93.69
40089;BME280;25793;55.706;13.186;2022-07-23T08:07:56;100758.09;;;14.82;93.26
40089;BME280;25793;55.706;13.186;2022-07-23T08:10:27;100761.22;;;14.87;92.66
40089;BME280;25793;55.706;13.186;2022-07-23T08:12:55;100756.13;;;14.97;93.25
40089;BME280;25793;55.706;13.186;2022-07-23T08:15:24;100756.53;;;15.27;91.90
40089;BME280;25793;55.706;13.186;2022-07-23T08:17:52;100760.56;;;15.42;91.50
40089;BME280;25793;55.706;13.186;2022-07-23T08:20:20;100760.94;;;15.38;91.52
40089;BME280;25793;55.706;13.186;2022-07-23T08:22:53;100763.31;;;15.29;91.59
40089;BME280;25793;55.706;13.186;2022-07-23T08:25:23;100765.78;;;15.08;91.99
40089;BME280;25793;55.706;13.186;2022-07-23T08:27:50;100750.69;;;15.12;92.13
40089;BME280;25793;55.706;13.186;2022-07-23T08:30:17;100754.75;;;15.50;90.87
40089;BME280;25793;55.706;13.186;2022-07-23T08:35:34;100755.19;;;15.78;89.25
40089;BME280;25793;55.706;13.186;2022-07-23T08:38:04;100757.97;;;15.31;90.08
40089;BME280;25793;55.706;13.186;2022-07-23T08:40:33;100761.63;;;15.62;89.13
40089;BME280;25793;55.706;13.186;2022-07-23T08:43:10;100768.53;;;15.52;89.88
40089;BME280;25793;55.706;13.186;2022-07-23T08:45:40;100768.91;;;15.47;89.91
40089;BME280;25793;55.706;13.186;2022-07-23T08:48:12;100768.09;;;15.47;89.27
40089;BME280;25793;55.706;13.186;2022-07-23T08:50:43;100766.16;;;15.26;90.17
40089;BME280;25793;55.706;13.186;2022-07-23T08:53:10;100767.72;;;15.40;90.00
40089;BME280;25793;55.706;13.186;2022-07-23T08:55:37;100759.25;;;15.59;88.92
40089;BME280;25793;55.706;13.186;2022-07-23T08:58:03;100771.16;;;15.75;88.68
40089;BME280;25793;55.706;13.186;2022-07-23T09:00:30;100777.72;;;15.46;89.75
40089;BME280;25793;55.706;13.186;2022-07-23T09:02:57;100777.59;;;15.59;89.21
40089;BME280;25793;55.706;13.186;2022-07-23T09:05:24;100789.56;;;15.86;88.53
40089;BME280;25793;55.706;13.186;2022-07-23T09:10:59;100789.38;;;16.11;86.81
40089;BME280;25793;55.706;13.186;2022-07-23T09:16:03;100783.56;;;15.84;87.55
40089;BME280;25793;55.706;13.186;2022-07-23T09:18:36;100785.47;;;15.48;89.38
40089;BME280;25793;55.706;13.186;2022-07-23T09:23:40;100785.34;;;15.38;89.66
40089;BME280;25793;55.706;13.186;2022-07-23T09:31:56;100782.84;;;15.48;90.13
40089;BME280;25793;55.706;13.186;2022-07-23T09:34:33;100777.97;;;15.55;89.99
40089;BME280;25793;55.706;13.186;2022-07-23T09:37:17;100774.25;;;15.69;89.39
40089;BME280;25793;55.706;13.186;2022-07-23T09:39:45;100774.50;;;15.65;89.69
40089;BME280;25793;55.706;13.186;2022-07-23T09:42:18;100776.88;;;15.12;91.01
40089;BME280;25793;55.706;13.186;2022-07-23T09:44:53;100774.97;;;15.59;90.11
40089;BME280;25793;55.706;13.186;2022-07-23T09:47:23;100777.72;;;15.69;89.09
40089;BME280;25793;55.706;13.186;2022-07-23T09:50:08;100785.34;;;15.95;88.66
40089;BME280;25793;55.706;13.186;2022-07-23T09:52:43;100778.06;;;15.30;90.15
40089;BME280;25793;55.706;13.186;2022-07-23T09:55:10;100782.63;;;15.40;90.12
40089;BME280;25793;55.706;13.186;2022-07-23T09:57:37;100773.44;;;16.02;88.01
40089;BME280;25793;55.706;13.186;2022-07-23T10:00:08;100786.56;;;15.57;88.48
40089;BME280;25793;55.706;13.186;2022-07-23T10:02:39;100788.06;;;16.05;87.32
40089;BME280;25793;55.706;13.186;2022-07-23T10:05:25;100793.34;;;15.82;88.20
40089;BME280;25793;55.706;13.186;2022-07-23T10:07:59;100786.78;;;15.88;89.12
40089;BME280;25793;55.706;13.186;2022-07-23T10:10:46;100794.63;;;15.42;89.85
40089;BME280;25793;55.706;13.186;2022-07-23T10:13:40;100785.47;;;15.82;88.71
40089;BME280;25793;55.706;13.186;2022-07-23T10:16:32;100788.63;;;16.20;87.45
40089;BME280;25793;55.706;13.186;2022-07-23T10:18:59;100792.91;;;16.32;86.66
40089;BME280;25793;55.706;13.186;2022-07-23T10:22:13;100788.66;;;16.08;86.85
40089;BME280;25793;55.706;13.186;2022-07-23T10:24:52;100799.63;;;15.79;88.48
40089;BME280;25793;55.706;13.186;2022-07-23T10:28:06;100788.22;;;15.92;88.32
40089;BME280;25793;55.706;13.186;2022-07-23T10:30:44;100791.66;;;15.70;89.17
40089;BME280;25793;55.706;13.186;2022-07-23T10:33:21;100788.44;;;15.77;88.58
40089;BME280;25793;55.706;13.186;2022-07-23T10:36:03;100782.59;;;16.08;87.73
40089;BME280;25793;55.706;13.186;2022-07-23T10:39:24;100797.94;;;16.24;87.25
40089;BME280;25793;55.706;13.186;2022-07-23T10:41:52;100792.50;;;15.82;87.84
40089;BME280;25793;55.706;13.186;2022-07-23T10:44:21;100791.41;;;15.96;87.89
40089;BME280;25793;55.706;13.186;2022-07-23T10:46:58;100796.66;;;16.18;87.48
40089;BME280;25793;55.706;13.186;2022-07-23T10:49:32;100793.09;;;16.08;87.93
40089;BME280;25793;55.706;13.186;2022-07-23T10:57:13;100781.63;;;16.09;87.30
40089;BME280;25793;55.706;13.186;2022-07-23T11:02:43;100782.59;;;16.08;86.94
40089;BME280;25793;55.706;13.186;2022-07-23T11:05:12;100790.47;;;15.74;87.95
40089;BME280;25793;55.706;13.186;2022-07-23T11:10:35;100787.06;;;16.29;86.24
40089;BME280;25793;55.706;13.186;2022-07-23T11:32:11;100794.97;;;16.50;85.50
40089;BME280;25793;55.706;13.186;2022-07-23T11:34:48;100787.22;;;16.81;84.58
40089;BME280;25793;55.706;13.186;2022-07-23T11:37:39;100787.44;;;17.10;83.36
40089;BME280;25793;55.706;13.186;2022-07-23T11:40:11;100790.00;;;17.01;83.09
40089;BME280;25793;55.706;13.186;2022-07-23T11:42:39;100797.06;;;16.67;83.47
40089;BME280;25793;55.706;13.186;2022-07-23T11:45:17;100798.81;;;16.78;83.47
40089;BME280;25793;55.706;13.186;2022-07-23T11:47:43;100799.63;;;16.14;85.93
40089;BME280;25793;55.706;13.186;2022-07-23T11:50:10;100794.03;;;16.07;86.56
40089;BME280;25793;55.706;13.186;2022-07-23T11:52:38;100798.22;;;15.64;88.37
40089;BME280;25793;55.706;13.186;2022-07-23T11:55:08;100798.19;;;16.21;86.86
40089;BME280;25793;55.706;13.186;2022-07-23T11:57:38;100797.22;;;16.22;86.31
40089;BME280;25793;55.706;13.186;2022-07-23T12:02:45;100789.03;;;16.15;87.43
40089;BME280;25793;55.706;13.186;2022-07-23T12:05:21;100790.31;;;16.09;87.53
40089;BME280;25793;55.706;13.186;2022-07-23T12:07:52;100783.47;;;16.30;87.04
40089;BME280;25793;55.706;13.186;2022-07-23T12:10:21;100791.09;;;16.00;87.17
40089;BME280;25793;55.706;13.186;2022-07-23T12:12:59;100796.66;;;15.96;88.54
40089;BME280;25793;55.706;13.186;2022-07-23T12:17:55;100795.94;;;15.93;89.42
40089;BME280;25793;55.706;13.186;2022-07-23T12:20:24;100786.47;;;16.25;88.29
40089;BME280;25793;55.706;13.186;2022-07-23T12:22:56;100795.53;;;16.32;87.46
40089;BME280;25793;55.706;13.186;2022-07-23T12:25:26;100790.19;;;16.22;88.75
40089;BME280;25793;55.706;13.186;2022-07-23T12:28:08;100790.25;;;16.44;88.38
40089;BME280;25793;55.706;13.186;2022-07-23T12:30:43;100797.63;;;15.94;90.05
40089;BME280;25793;55.706;13.186;2022-07-23T12:33:12;100800.16;;;15.96;90.02
40089;BME280;25793;55.706;13.186;2022-07-23T12:35:42;100794.03;;;16.07;90.50
40089;BME280;25793;55.706;13.186;2022-07-23T12:38:12;100786.47;;;16.25;90.05
40089;BME280;25793;55.706;13.186;2022-07-23T12:40:47;100788.47;;;16.00;90.24
40089;BME280;25793;55.706;13.186;2022-07-23T12:43:21;100794.50;;;16.23;90.05
40089;BME280;25793;55.706;13.186;2022-07-23T12:45:50;100790.53;;;16.18;90.10
40089;BME280;25793;55.706;13.186;2022-07-23T12:48:24;100783.34;;;16.43;89.55
40089;BME280;25793;55.706;13.186;2022-07-23T12:50:57;100775.47;;;16.85;87.48
40089;BME280;25793;55.706;13.186;2022-07-23T12:53:25;100783.97;;;16.56;88.24
40089;BME280;25793;55.706;13.186;2022-07-23T12:56:01;100781.81;;;16.29;89.30
40089;BME280;25793;55.706;13.186;2022-07-23T13:01:44;100785.16;;;16.63;87.82
40089;BME280;25793;55.706;13.186;2022-07-23T13:04:23;100780.78;;;16.52;88.15
40089;BME280;25793;55.706;13.186;2022-07-23T13:06:51;100792.06;;;16.97;86.91
40089;BME280;25793;55.706;13.186;2022-07-23T13:09:20;100796.94;;;16.69;87.92
40089;BME280;25793;55.706;13.186;2022-07-23T13:11:49;100795.38;;;16.78;87.66
40089;BME280;25793;55.706;13.186;2022-07-23T13:14:17;100800.03;;;16.42;88.70
40089;BME280;25793;55.706;13.186;2022-07-23T13:16:48;100800.38;;;16.81;87.65
40089;BME280;25793;55.706;13.186;2022-07-23T13:19:16;100803.63;;;16.94;86.54
40089;BME280;25793;55.706;13.186;2022-07-23T13:21:45;100805.22;;;16.97;85.75
40089;BME280;25793;55.706;13.186;2022-07-23T13:24:12;100813.91;;;16.86;86.77
40089;BME280;25793;55.706;13.186;2022-07-23T13:26:39;100820.22;;;16.95;86.30
40089;BME280;25793;55.706;13.186;2022-07-23T13:29:06;100827.75;;;17.00;85.96
40089;BME280;25793;55.706;13.186;2022-07-23T13:31:36;100831.75;;;16.82;86.50
40089;BME280;25793;55.706;13.186;2022-07-23T13:34:04;100833.66;;;16.80;86.75
40089;BME280;25793;55.706;13.186;2022-07-23T13:36:35;100837.31;;;16.89;86.57
40089;BME280;25793;55.706;13.186;2022-07-23T13:39:03;100838.13;;;16.68;87.51
40089;BME280;25793;55.706;13.186;2022-07-23T13:41:32;100827.59;;;16.36;89.50
40089;BME280;25793;55.706;13.186;2022-07-23T13:43:59;100829.75;;;16.31;89.55
40089;BME280;25793;55.706;13.186;2022-07-23T13:46:26;100838.41;;;16.10;90.54
40089;BME280;25793;55.706;13.186;2022-07-23T13:48:53;100845.44;;;15.87;92.79